sensor_id;sensor_type;location;lat;lon;timestamp;P1;durP1;ratioP1;P2;durP2;ratioP2
59338;SDS011;45117;50.960;5.500;2023-04-01T02:13:15;3.92;;;0.80;;
59338;SDS011;45117;50.960;5.500;2023-04-01T02:15:48;2.60;;;0.80;;
59338;SDS011;45117;50.960;5.500;2023-04-01T02:18:17;3.10;;;0.52;;
59338;SDS011;45117;50.960;5.500;2023-04-01T02:20:45;0.90;;;0.47;;
59338;SDS011;45117;50.960;5.500;2023-04-01T02:23:12;5.88;;;0.85;;
59338;SDS011;45117;50.960;5.500;2023-04-01T02:25:39;0.77;;;0.50;;
59338;SDS011;45117;50.960;5.500;2023-04-01T02:28:08;1.92;;;0.60;;
59338;SDS011;45117;50.960;5.500;2023-04-01T02:30:38;3.50;;;0.75;;
59338;SDS011;45117;50.960;5.500;2023-04-01T02:33:07;1.63;;;0.60;;
59338;SDS011;45117;50.960;5.500;2023-04-01T02:35:35;1.50;;;0.47;;
59338;SDS011;45117;50.960;5.500;2023-04-01T02:38:02;1.15;;;0.50;;
59338;SDS011;45117;50.960;5.500;2023-04-01T02:40:34;1.58;;;0.47;;
59338;SDS011;45117;50.960;5.500;2023-04-01T02:43:07;2.15;;;1.08;;
59338;SDS011;45117;50.960;5.500;2023-04-01T02:45:34;1.02;;;0.40;;
59338;SDS011;45117;50.960;5.500;2023-04-01T02:48:02;1.67;;;0.70;;
59338;SDS011;45117;50.960;5.500;2023-04-01T02:50:29;1.63;;;0.65;;
59338;SDS011;45117;50.960;5.500;2023-04-01T02:52:55;2.85;;;0.50;;
59338;SDS011;45117;50.960;5.500;2023-04-01T02:55:22;0.98;;;0.57;;
59338;SDS011;45117;50.960;5.500;2023-04-01T02:57:48;3.47;;;0.65;;
59338;SDS011;45117;50.960;5.500;2023-04-01T03:00:15;1.30;;;0.63;;
59338;SDS011;45117;50.960;5.500;2023-04-01T03:02:43;1.77;;;0.80;;
59338;SDS011;45117;50.960;5.500;2023-04-01T03:05:11;1.48;;;0.82;;
59338;SDS011;45117;50.960;5.500;2023-04-01T03:07:37;1.25;;;0.70;;
59338;SDS011;45117;50.960;5.500;2023-04-01T03:10:04;2.38;;;0.90;;
59338;SDS011;45117;50.960;5.500;2023-04-01T03:12:32;1.90;;;0.90;;
59338;SDS011;45117;50.960;5.500;2023-04-01T03:14:58;1.67;;;0.90;;
59338;SDS011;45117;50.960;5.500;2023-04-01T03:17:25;2.35;;;1.00;;
59338;SDS011;45117;50.960;5.500;2023-04-01T03:19:51;3.40;;;1.17;;
59338;SDS011;45117;50.960;5.500;2023-04-01T03:22:19;2.28;;;0.80;;
59338;SDS011;45117;50.960;5.500;2023-04-01T03:24:46;1.92;;;1.20;;
59338;SDS011;45117;50.960;5.500;2023-04-01T03:27:13;2.42;;;1.20;;
59338;SDS011;45117;50.960;5.500;2023-04-01T03:29:39;2.88;;;1.25;;
59338;SDS011;45117;50.960;5.500;2023-04-01T03:32:06;1.67;;;1.00;;
59338;SDS011;45117;50.960;5.500;2023-04-01T03:34:32;1.75;;;1.02;;
59338;SDS011;45117;50.960;5.500;2023-04-01T03:36:59;3.92;;;1.20;;
59338;SDS011;45117;50.960;5.500;2023-04-01T03:39:27;2.25;;;1.30;;
59338;SDS011;45117;50.960;5.500;2023-04-01T03:41:53;2.30;;;1.38;;
59338;SDS011;45117;50.960;5.500;2023-04-01T03:44:20;2.80;;;1.20;;
59338;SDS011;45117;50.960;5.500;2023-04-01T03:46:46;2.70;;;1.30;;
59338;SDS011;45117;50.960;5.500;2023-04-01T03:49:13;2.92;;;1.25;;
59338;SDS011;45117;50.960;5.500;2023-04-01T03:51:40;1.50;;;1.20;;
59338;SDS011;45117;50.960;5.500;2023-04-01T03:54:07;3.05;;;1.13;;
59338;SDS011;45117;50.960;5.500;2023-04-01T03:56:37;1.42;;;1.02;;
59338;SDS011;45117;50.960;5.500;2023-04-01T03:59:05;1.25;;;0.90;;
59338;SDS011;45117;50.960;5.500;2023-04-01T04:01:33;2.53;;;1.00;;
59338;SDS011;45117;50.960;5.500;2023-04-01T04:04:00;2.78;;;1.45;;
59338;SDS011;45117;50.960;5.500;2023-04-01T04:06:27;3.45;;;1.70;;
59338;SDS011;45117;50.960;5.500;2023-04-01T04:08:54;3.05;;;1.75;;
59338;SDS011;45117;50.960;5.500;2023-04-01T04:11:20;2.95;;;1.90;;
59338;SDS011;45117;50.960;5.500;2023-04-01T04:13:49;4.05;;;1.90;;
59338;SDS011;45117;50.960;5.500;2023-04-01T04:16:17;3.38;;;1.90;;
59338;SDS011;45117;50.960;5.500;2023-04-01T04:18:44;3.33;;;1.70;;
59338;SDS011;45117;50.960;5.500;2023-04-01T04:21:11;4.75;;;1.50;;
59338;SDS011;45117;50.960;5.500;2023-04-01T04:23:38;6.43;;;2.13;;
59338;SDS011;45117;50.960;5.500;2023-04-01T04:26:06;3.40;;;1.55;;
59338;SDS011;45117;50.960;5.500;2023-04-01T04:28:34;4.65;;;1.80;;
59338;SDS011;45117;50.960;5.500;2023-04-01T04:31:02;3.28;;;1.70;;
59338;SDS011;45117;50.960;5.500;2023-04-01T04:33:31;3.35;;;1.60;;
59338;SDS011;45117;50.960;5.500;2023-04-01T04:35:58;3.45;;;1.67;;
59338;SDS011;45117;50.960;5.500;2023-04-01T04:38:25;3.30;;;1.50;;
59338;SDS011;45117;50.960;5.500;2023-04-01T04:40:52;2.85;;;1.52;;
59338;SDS011;45117;50.960;5.500;2023-04-01T04:43:19;2.72;;;1.60;;
59338;SDS011;45117;50.960;5.500;2023-04-01T04:45:45;4.22;;;1.67;;
59338;SDS011;45117;50.960;5.500;2023-04-01T04:48:14;3.35;;;1.80;;
59338;SDS011;45117;50.960;5.500;2023-04-01T04:50:43;3.70;;;1.55;;
59338;SDS011;45117;50.960;5.500;2023-04-01T04:53:10;5.10;;;1.90;;
59338;SDS011;45117;50.960;5.500;2023-04-01T04:55:37;4.35;;;1.83;;
59338;SDS011;45117;50.960;5.500;2023-04-01T04:58:03;3.47;;;1.75;;
59338;SDS011;45117;50.960;5.500;2023-04-01T05:00:30;4.47;;;1.80;;
59338;SDS011;45117;50.960;5.500;2023-04-01T05:02:56;3.70;;;1.70;;
59338;SDS011;45117;50.960;5.500;2023-04-01T05:05:24;5.32;;;2.28;;
59338;SDS011;45117;50.960;5.500;2023-04-01T05:07:50;5.25;;;2.35;;
59338;SDS011;45117;50.960;5.500;2023-04-01T05:10:17;7.38;;;2.38;;
59338;SDS011;45117;50.960;5.500;2023-04-01T05:12:45;4.90;;;2.08;;
59338;SDS011;45117;50.960;5.500;2023-04-01T05:15:12;6.78;;;2.35;;
59338;SDS011;45117;50.960;5.500;2023-04-01T05:17:38;8.93;;;3.05;;
59338;SDS011;45117;50.960;5.500;2023-04-01T05:20:06;4.45;;;2.22;;
59338;SDS011;45117;50.960;5.500;2023-04-01T05:22:34;7.95;;;2.83;;
59338;SDS011;45117;50.960;5.500;2023-04-01T05:25:01;6.10;;;2.80;;
59338;SDS011;45117;50.960;5.500;2023-04-01T05:27:27;6.95;;;2.72;;
59338;SDS011;45117;50.960;5.500;2023-04-01T05:29:53;7.20;;;3.30;;
59338;SDS011;45117;50.960;5.500;2023-04-01T05:32:21;6.05;;;3.55;;
59338;SDS011;45117;50.960;5.500;2023-04-01T05:34:49;9.85;;;3.40;;
59338;SDS011;45117;50.960;5.500;2023-04-01T05:37:16;6.65;;;3.05;;
59338;SDS011;45117;50.960;5.500;2023-04-01T05:39:44;8.43;;;3.70;;
59338;SDS011;45117;50.960;5.500;2023-04-01T05:42:11;8.55;;;3.40;;
59338;SDS011;45117;50.960;5.500;2023-04-01T05:44:37;10.27;;;3.72;;
59338;SDS011;45117;50.960;5.500;2023-04-01T05:47:04;9.05;;;3.80;;
59338;SDS011;45117;50.960;5.500;2023-04-01T05:49:30;12.00;;;4.07;;
59338;SDS011;45117;50.960;5.500;2023-04-01T05:51:59;8.20;;;3.88;;
59338;SDS011;45117;50.960;5.500;2023-04-01T05:54:25;9.90;;;4.18;;
59338;SDS011;45117;50.960;5.500;2023-04-01T05:56:53;6.50;;;3.45;;
59338;SDS011;45117;50.960;5.500;2023-04-01T05:59:19;7.05;;;3.83;;
59338;SDS011;45117;50.960;5.500;2023-04-01T06:01:46;6.82;;;3.72;;
59338;SDS011;45117;50.960;5.500;2023-04-01T06:04:13;10.13;;;4.07;;
59338;SDS011;45117;50.960;5.500;2023-04-01T06:06:41;6.78;;;4.00;;
59338;SDS011;45117;50.960;5.500;2023-04-01T06:09:10;7.90;;;3.40;;
59338;SDS011;45117;50.960;5.500;2023-04-01T06:11:42;8.90;;;3.38;;
59338;SDS011;45117;50.960;5.500;2023-04-01T06:14:27;6.72;;;2.90;;
59338;SDS011;45117;50.960;5.500;2023-04-01T06:17:05;8.15;;;3.60;;
59338;SDS011;45117;50.960;5.500;2023-04-01T06:19:44;5.82;;;3.03;;
59338;SDS011;45117;50.960;5.500;2023-04-01T06:22:29;4.25;;;2.65;;
59338;SDS011;45117;50.960;5.500;2023-04-01T06:25:14;3.83;;;2.42;;
59338;SDS011;45117;50.960;5.500;2023-04-01T06:27:55;3.63;;;2.25;;
59338;SDS011;45117;50.960;5.500;2023-04-01T06:30:33;5.63;;;2.55;;
59338;SDS011;45117;50.960;5.500;2023-04-01T06:33:11;5.07;;;2.90;;
59338;SDS011;45117;50.960;5.500;2023-04-01T06:36:00;3.58;;;2.38;;
59338;SDS011;45117;50.960;5.500;2023-04-01T06:38:39;3.22;;;2.22;;
59338;SDS011;45117;50.960;5.500;2023-04-01T06:41:23;4.50;;;1.88;;
59338;SDS011;45117;50.960;5.500;2023-04-01T06:44:04;5.13;;;2.10;;
59338;SDS011;45117;50.960;5.500;2023-04-01T06:46:38;3.20;;;1.70;;
59338;SDS011;45117;50.960;5.500;2023-04-01T06:49:17;1.95;;;1.48;;
59338;SDS011;45117;50.960;5.500;2023-04-01T06:51:59;2.45;;;1.60;;
59338;SDS011;45117;50.960;5.500;2023-04-01T06:54:32;2.33;;;1.63;;
59338;SDS011;45117;50.960;5.500;2023-04-01T06:57:02;2.10;;;1.77;;
59338;SDS011;45117;50.960;5.500;2023-04-01T06:59:38;3.03;;;1.77;;
59338;SDS011;45117;50.960;5.500;2023-04-01T07:02:05;3.00;;;1.70;;
59338;SDS011;45117;50.960;5.500;2023-04-01T07:04:46;4.00;;;1.80;;
59338;SDS011;45117;50.960;5.500;2023-04-01T07:07:16;2.80;;;1.80;;
59338;SDS011;45117;50.960;5.500;2023-04-01T07:09:50;3.00;;;2.00;;
59338;SDS011;45117;50.960;5.500;2023-04-01T07:12:21;2.97;;;1.60;;
59338;SDS011;45117;50.960;5.500;2023-04-01T07:14:56;2.13;;;1.60;;
59338;SDS011;45117;50.960;5.500;2023-04-01T07:17:28;2.97;;;1.50;;
59338;SDS011;45117;50.960;5.500;2023-04-01T07:19:59;1.88;;;1.60;;
59338;SDS011;45117;50.960;5.500;2023-04-01T07:22:32;2.17;;;1.30;;
59338;SDS011;45117;50.960;5.500;2023-04-01T07:25:02;1.52;;;1.15;;
59338;SDS011;45117;50.960;5.500;2023-04-01T07:27:31;2.75;;;1.23;;
59338;SDS011;45117;50.960;5.500;2023-04-01T07:29:59;1.10;;;1.00;;
59338;SDS011;45117;50.960;5.500;2023-04-01T07:32:30;1.67;;;1.15;;
59338;SDS011;45117;50.960;5.500;2023-04-01T07:35:09;0.80;;;0.80;;
59338;SDS011;45117;50.960;5.500;2023-04-01T07:37:46;1.05;;;0.90;;
59338;SDS011;45117;50.960;5.500;2023-04-01T07:40:24;2.78;;;0.80;;
59338;SDS011;45117;50.960;5.500;2023-04-01T07:43:00;1.77;;;0.93;;
59338;SDS011;45117;50.960;5.500;2023-04-01T07:45:41;1.00;;;0.70;;
59338;SDS011;45117;50.960;5.500;2023-04-01T07:48:18;1.13;;;0.95;;
59338;SDS011;45117;50.960;5.500;2023-04-01T07:50:53;1.00;;;0.90;;
59338;SDS011;45117;50.960;5.500;2023-04-01T07:53:28;2.45;;;1.00;;
59338;SDS011;45117;50.960;5.500;2023-04-01T07:56:04;1.58;;;0.88;;
59338;SDS011;45117;50.960;5.500;2023-04-01T07:58:35;1.00;;;0.80;;
59338;SDS011;45117;50.960;5.500;2023-04-01T08:01:13;0.95;;;0.80;;
59338;SDS011;45117;50.960;5.500;2023-04-01T08:03:57;0.73;;;0.70;;
59338;SDS011;45117;50.960;5.500;2023-04-01T08:06:39;2.10;;;0.95;;
59338;SDS011;45117;50.960;5.500;2023-04-01T08:09:15;0.85;;;0.80;;
59338;SDS011;45117;50.960;5.500;2023-04-01T08:11:53;1.55;;;0.80;;
59338;SDS011;45117;50.960;5.500;2023-04-01T08:14:28;1.27;;;1.00;;
59338;SDS011;45117;50.960;5.500;2023-04-01T08:17:00;1.15;;;1.02;;
59338;SDS011;45117;50.960;5.500;2023-04-01T08:19:31;1.38;;;1.08;;
59338;SDS011;45117;50.960;5.500;2023-04-01T08:22:12;1.70;;;1.13;;
59338;SDS011;45117;50.960;5.500;2023-04-01T08:24:46;1.30;;;1.10;;
59338;SDS011;45117;50.960;5.500;2023-04-01T08:27:16;0.93;;;0.90;;
59338;SDS011;45117;50.960;5.500;2023-04-01T08:29:48;1.10;;;1.00;;
59338;SDS011;45117;50.960;5.500;2023-04-01T08:32:20;1.60;;;1.00;;
59338;SDS011;45117;50.960;5.500;2023-04-01T08:34:53;1.45;;;0.90;;
59338;SDS011;45117;50.960;5.500;2023-04-01T08:37:25;1.55;;;1.02;;
59338;SDS011;45117;50.960;5.500;2023-04-01T08:39:57;1.00;;;0.90;;
59338;SDS011;45117;50.960;5.500;2023-04-01T08:42:30;1.17;;;1.00;;
59338;SDS011;45117;50.960;5.500;2023-04-01T08:45:26;1.20;;;1.08;;
59338;SDS011;45117;50.960;5.500;2023-04-01T08:51:09;2.42;;;1.10;;
59338;SDS011;45117;50.960;5.500;2023-04-01T08:53:51;2.13;;;1.38;;
59338;SDS011;45117;50.960;5.500;2023-04-01T08:56:31;2.75;;;1.35;;
59338;SDS011;45117;50.960;5.500;2023-04-01T08:59:05;2.03;;;1.10;;
59338;SDS011;45117;50.960;5.500;2023-04-01T09:01:53;1.40;;;1.30;;
59338;SDS011;45117;50.960;5.500;2023-04-01T09:04:32;2.15;;;1.42;;
59338;SDS011;45117;50.960;5.500;2023-04-01T09:07:18;3.25;;;1.42;;
59338;SDS011;45117;50.960;5.500;2023-04-01T09:10:00;1.40;;;1.30;;
59338;SDS011;45117;50.960;5.500;2023-04-01T09:12:47;2.13;;;1.50;;
59338;SDS011;45117;50.960;5.500;2023-04-01T09:15:37;2.72;;;1.75;;
59338;SDS011;45117;50.960;5.500;2023-04-01T09:21:11;2.17;;;1.30;;
59338;SDS011;45117;50.960;5.500;2023-04-01T09:24:05;2.83;;;1.50;;
59338;SDS011;45117;50.960;5.500;2023-04-01T09:26:44;1.40;;;1.30;;
59338;SDS011;45117;50.960;5.500;2023-04-01T09:29:27;2.60;;;1.40;;
59338;SDS011;45117;50.960;5.500;2023-04-01T09:32:18;2.35;;;1.60;;
59338;SDS011;45117;50.960;5.500;2023-04-01T09:35:01;1.60;;;1.35;;
59338;SDS011;45117;50.960;5.500;2023-04-01T09:37:39;1.80;;;1.42;;
59338;SDS011;45117;50.960;5.500;2023-04-01T09:40:18;1.95;;;1.55;;
59338;SDS011;45117;50.960;5.500;2023-04-01T09:42:56;2.53;;;1.92;;
59338;SDS011;45117;50.960;5.500;2023-04-01T09:45:35;2.63;;;1.80;;
59338;SDS011;45117;50.960;5.500;2023-04-01T09:48:12;2.00;;;1.80;;
59338;SDS011;45117;50.960;5.500;2023-04-01T09:50:48;2.47;;;1.98;;
59338;SDS011;45117;50.960;5.500;2023-04-01T09:53:30;2.15;;;1.83;;
59338;SDS011;45117;50.960;5.500;2023-04-01T09:56:23;3.88;;;2.50;;
59338;SDS011;45117;50.960;5.500;2023-04-01T09:59:04;2.70;;;2.13;;
59338;SDS011;45117;50.960;5.500;2023-04-01T10:01:54;3.78;;;2.30;;
59338;SDS011;45117;50.960;5.500;2023-04-01T10:04:52;1.88;;;1.40;;
59338;SDS011;45117;50.960;5.500;2023-04-01T10:08:02;2.65;;;1.40;;
59338;SDS011;45117;50.960;5.500;2023-04-01T10:14:17;1.85;;;1.30;;
59338;SDS011;45117;50.960;5.500;2023-04-01T10:17:08;2.45;;;1.30;;
59338;SDS011;45117;50.960;5.500;2023-04-01T10:19:59;1.70;;;1.52;;
59338;SDS011;45117;50.960;5.500;2023-04-01T10:22:46;3.92;;;1.60;;
59338;SDS011;45117;50.960;5.500;2023-04-01T10:32:09;1.75;;;1.40;;
59338;SDS011;45117;50.960;5.500;2023-04-01T10:35:20;1.98;;;1.50;;
59338;SDS011;45117;50.960;5.500;2023-04-01T10:38:02;1.42;;;1.33;;
59338;SDS011;45117;50.960;5.500;2023-04-01T10:40:57;1.92;;;1.35;;
59338;SDS011;45117;50.960;5.500;2023-04-01T10:43:56;2.58;;;1.30;;
59338;SDS011;45117;50.960;5.500;2023-04-01T10:59:12;1.75;;;1.50;;
59338;SDS011;45117;50.960;5.500;2023-04-01T11:18:11;2.90;;;2.00;;
59338;SDS011;45117;50.960;5.500;2023-04-01T11:20:59;2.22;;;1.98;;
59338;SDS011;45117;50.960;5.500;2023-04-01T11:27:07;2.78;;;2.22;;
59338;SDS011;45117;50.960;5.500;2023-04-01T11:29:46;3.33;;;2.42;;
59338;SDS011;45117;50.960;5.500;2023-04-01T11:32:28;2.45;;;2.20;;
59338;SDS011;45117;50.960;5.500;2023-04-01T11:35:22;2.70;;;2.20;;
59338;SDS011;45117;50.960;5.500;2023-04-01T11:38:00;3.10;;;2.30;;
59338;SDS011;45117;50.960;5.500;2023-04-01T11:40:37;2.65;;;2.42;;
59338;SDS011;45117;50.960;5.500;2023-04-01T11:43:16;2.88;;;2.40;;
59338;SDS011;45117;50.960;5.500;2023-04-01T11:45:51;3.38;;;2.40;;
59338;SDS011;45117;50.960;5.500;2023-04-01T11:48:35;2.63;;;2.30;;
59338;SDS011;45117;50.960;5.500;2023-04-01T11:51:34;4.65;;;3.00;;
59338;SDS011;45117;50.960;5.500;2023-04-01T11:54:23;3.10;;;2.50;;
59338;SDS011;45117;50.960;5.500;2023-04-01T11:57:05;3.67;;;3.00;;
59338;SDS011;45117;50.960;5.500;2023-04-01T11:59:42;4.30;;;3.25;;
59338;SDS011;45117;50.960;5.500;2023-04-01T12:02:29;4.05;;;3.25;;
59338;SDS011;45117;50.960;5.500;2023-04-01T12:05:18;4.22;;;3.60;;
59338;SDS011;45117;50.960;5.500;2023-04-01T12:08:08;6.72;;;4.63;;
59338;SDS011;45117;50.960;5.500;2023-04-01T12:10:44;5.90;;;4.85;;
59338;SDS011;45117;50.960;5.500;2023-04-01T12:13:18;7.28;;;5.55;;
59338;SDS011;45117;50.960;5.500;2023-04-01T12:16:05;6.65;;;4.88;;
59338;SDS011;45117;50.960;5.500;2023-04-01T12:18:42;8.18;;;5.03;;
59338;SDS011;45117;50.960;5.500;2023-04-01T12:21:17;8.30;;;5.43;;
59338;SDS011;45117;50.960;5.500;2023-04-01T12:23:59;7.35;;;4.85;;
59338;SDS011;45117;50.960;5.500;2023-04-01T12:26:43;6.78;;;5.53;;
59338;SDS011;45117;50.960;5.500;2023-04-01T12:29:23;8.48;;;5.00;;
59338;SDS011;45117;50.960;5.500;2023-04-01T12:32:09;7.03;;;4.80;;
59338;SDS011;45117;50.960;5.500;2023-04-01T12:37:42;7.38;;;4.93;;
59338;SDS011;45117;50.960;5.500;2023-04-01T12:40:34;8.32;;;5.35;;
59338;SDS011;45117;50.960;5.500;2023-04-01T12:43:15;6.78;;;4.72;;
59338;SDS011;45117;50.960;5.500;2023-04-01T12:45:54;7.05;;;4.63;;
59338;SDS011;45117;50.960;5.500;2023-04-01T12:51:29;6.75;;;4.47;;
59338;SDS011;45117;50.960;5.500;2023-04-01T12:54:18;4.82;;;3.97;;
59338;SDS011;45117;50.960;5.500;2023-04-01T12:57:11;5.70;;;4.32;;
59338;SDS011;45117;50.960;5.500;2023-04-01T12:59:55;8.77;;;4.30;;
59338;SDS011;45117;50.960;5.500;2023-04-01T13:02:36;8.43;;;4.63;;
59338;SDS011;45117;50.960;5.500;2023-04-01T13:05:20;8.13;;;5.70;;
59338;SDS011;45117;50.960;5.500;2023-04-01T13:08:04;6.20;;;4.20;;
59338;SDS011;45117;50.960;5.500;2023-04-01T13:10:57;5.00;;;4.00;;
59338;SDS011;45117;50.960;5.500;2023-04-01T13:13:37;6.03;;;4.30;;
59338;SDS011;45117;50.960;5.500;2023-04-01T13:16:14;5.43;;;4.55;;
59338;SDS011;45117;50.960;5.500;2023-04-01T13:18:49;5.25;;;4.30;;
59338;SDS011;45117;50.960;5.500;2023-04-01T13:21:25;6.47;;;5.53;;
59338;SDS011;45117;50.960;5.500;2023-04-01T13:24:02;7.07;;;4.55;;
59338;SDS011;45117;50.960;5.500;2023-04-01T13:26:38;8.00;;;4.63;;
59338;SDS011;45117;50.960;5.500;2023-04-01T13:29:11;8.23;;;5.22;;
59338;SDS011;45117;50.960;5.500;2023-04-01T13:31:48;7.95;;;5.15;;
59338;SDS011;45117;50.960;5.500;2023-04-01T13:34:24;7.03;;;5.30;;
59338;SDS011;45117;50.960;5.500;2023-04-01T13:37:02;7.50;;;5.13;;
59338;SDS011;45117;50.960;5.500;2023-04-01T13:39:49;7.65;;;5.22;;
59338;SDS011;45117;50.960;5.500;2023-04-01T13:42:28;6.25;;;4.45;;
59338;SDS011;45117;50.960;5.500;2023-04-01T13:45:01;6.60;;;4.65;;
59338;SDS011;45117;50.960;5.500;2023-04-01T13:47:51;7.07;;;5.68;;
59338;SDS011;45117;50.960;5.500;2023-04-01T13:50:47;6.30;;;4.93;;
59338;SDS011;45117;50.960;5.500;2023-04-01T13:56:20;5.50;;;4.30;;
59338;SDS011;45117;50.960;5.500;2023-04-01T13:59:08;5.25;;;4.05;;
59338;SDS011;45117;50.960;5.500;2023-04-01T14:01:50;6.82;;;4.32;;
59338;SDS011;45117;50.960;5.500;2023-04-01T14:04:29;5.47;;;4.10;;
59338;SDS011;45117;50.960;5.500;2023-04-01T14:07:08;5.35;;;4.10;;
59338;SDS011;45117;50.960;5.500;2023-04-01T14:09:44;5.13;;;3.90;;
59338;SDS011;45117;50.960;5.500;2023-04-01T14:12:22;5.63;;;4.32;;
59338;SDS011;45117;50.960;5.500;2023-04-01T14:15:01;5.00;;;4.15;;
59338;SDS011;45117;50.960;5.500;2023-04-01T14:17:44;6.40;;;4.60;;
59338;SDS011;45117;50.960;5.500;2023-04-01T14:20:29;4.75;;;3.90;;
59338;SDS011;45117;50.960;5.500;2023-04-01T14:26:27;5.18;;;3.70;;
59338;SDS011;45117;50.960;5.500;2023-04-01T14:29:02;4.78;;;3.47;;
59338;SDS011;45117;50.960;5.500;2023-04-01T14:31:39;4.28;;;3.42;;
59338;SDS011;45117;50.960;5.500;2023-04-01T14:34:31;5.10;;;4.10;;
59338;SDS011;45117;50.960;5.500;2023-04-01T14:37:10;6.53;;;3.85;;
59338;SDS011;45117;50.960;5.500;2023-04-01T14:39:49;5.07;;;3.53;;
59338;SDS011;45117;50.960;5.500;2023-04-01T14:42:35;4.00;;;3.10;;
59338;SDS011;45117;50.960;5.500;2023-04-01T14:45:31;3.70;;;2.90;;
59338;SDS011;45117;50.960;5.500;2023-04-01T14:48:15;3.08;;;2.30;;
59338;SDS011;45117;50.960;5.500;2023-04-01T14:50:51;3.35;;;2.47;;
59338;SDS011;45117;50.960;5.500;2023-04-01T14:53:25;3.80;;;2.67;;
59338;SDS011;45117;50.960;5.500;2023-04-01T14:55:54;4.10;;;2.90;;
59338;SDS011;45117;50.960;5.500;2023-04-01T14:58:22;3.70;;;2.58;;
59338;SDS011;45117;50.960;5.500;2023-04-01T15:00:55;2.58;;;2.08;;
59338;SDS011;45117;50.960;5.500;2023-04-01T15:03:33;2.83;;;2.50;;
59338;SDS011;45117;50.960;5.500;2023-04-01T15:06:19;1.73;;;1.60;;
59338;SDS011;45117;50.960;5.500;2023-04-01T15:09:02;2.95;;;2.00;;
59338;SDS011;45117;50.960;5.500;2023-04-01T15:11:36;2.25;;;1.88;;
59338;SDS011;45117;50.960;5.500;2023-04-01T15:17:21;2.15;;;1.77;;
59338;SDS011;45117;50.960;5.500;2023-04-01T15:19:58;1.98;;;1.75;;
59338;SDS011;45117;50.960;5.500;2023-04-01T15:22:41;2.28;;;1.75;;
59338;SDS011;45117;50.960;5.500;2023-04-01T15:25:28;2.47;;;1.70;;
59338;SDS011;45117;50.960;5.500;2023-04-01T15:28:07;1.92;;;1.55;;
59338;SDS011;45117;50.960;5.500;2023-04-01T15:30:45;3.22;;;2.20;;
59338;SDS011;45117;50.960;5.500;2023-04-01T15:33:24;2.35;;;1.75;;
59338;SDS011;45117;50.960;5.500;2023-04-01T15:36:04;2.45;;;1.98;;
59338;SDS011;45117;50.960;5.500;2023-04-01T15:38:42;2.58;;;2.22;;
59338;SDS011;45117;50.960;5.500;2023-04-01T15:41:14;2.40;;;2.10;;
59338;SDS011;45117;50.960;5.500;2023-04-01T15:43:42;3.08;;;2.10;;
59338;SDS011;45117;50.960;5.500;2023-04-01T15:49:12;3.72;;;2.90;;
59338;SDS011;45117;50.960;5.500;2023-04-01T15:51:48;5.50;;;3.70;;
59338;SDS011;45117;50.960;5.500;2023-04-01T15:57:40;8.13;;;5.60;;
59338;SDS011;45117;50.960;5.500;2023-04-01T16:00:16;4.78;;;3.10;;
59338;SDS011;45117;50.960;5.500;2023-04-01T16:02:49;3.03;;;2.65;;
59338;SDS011;45117;50.960;5.500;2023-04-01T16:08:11;4.85;;;4.35;;
59338;SDS011;45117;50.960;5.500;2023-04-01T16:10:54;4.82;;;2.70;;
59338;SDS011;45117;50.960;5.500;2023-04-01T16:13:42;2.47;;;2.20;;
59338;SDS011;45117;50.960;5.500;2023-04-01T16:16:21;2.47;;;1.83;;
59338;SDS011;45117;50.960;5.500;2023-04-01T16:18:59;2.88;;;2.55;;
59338;SDS011;45117;50.960;5.500;2023-04-01T16:21:37;1.73;;;1.63;;
59338;SDS011;45117;50.960;5.500;2023-04-01T16:24:13;2.58;;;2.20;;
59338;SDS011;45117;50.960;5.500;2023-04-01T16:26:49;2.45;;;2.10;;
59338;SDS011;45117;50.960;5.500;2023-04-01T16:29:21;3.10;;;2.30;;
59338;SDS011;45117;50.960;5.500;2023-04-01T16:31:55;2.90;;;1.80;;
59338;SDS011;45117;50.960;5.500;2023-04-01T16:34:30;2.13;;;1.70;;
59338;SDS011;45117;50.960;5.500;2023-04-01T16:37:03;2.67;;;1.90;;
59338;SDS011;45117;50.960;5.500;2023-04-01T16:39:41;3.20;;;2.10;;
59338;SDS011;45117;50.960;5.500;2023-04-01T16:42:19;2.45;;;2.08;;
59338;SDS011;45117;50.960;5.500;2023-04-01T16:44:53;3.28;;;2.17;;
59338;SDS011;45117;50.960;5.500;2023-04-01T16:47:27;10.07;;;5.10;;
59338;SDS011;45117;50.960;5.500;2023-04-01T16:49:58;6.13;;;4.15;;
59338;SDS011;45117;50.960;5.500;2023-04-01T16:52:30;4.38;;;2.75;;
59338;SDS011;45117;50.960;5.500;2023-04-01T16:55:03;5.05;;;3.20;;
59338;SDS011;45117;50.960;5.500;2023-04-01T16:57:45;5.75;;;2.45;;
59338;SDS011;45117;50.960;5.500;2023-04-01T17:00:17;1.67;;;1.40;;
59338;SDS011;45117;50.960;5.500;2023-04-01T17:02:52;2.20;;;1.77;;
59338;SDS011;45117;50.960;5.500;2023-04-01T17:05:35;3.03;;;2.17;;
59338;SDS011;45117;50.960;5.500;2023-04-01T17:08:09;2.53;;;1.63;;
59338;SDS011;45117;50.960;5.500;2023-04-01T17:10:45;3.15;;;1.90;;
59338;SDS011;45117;50.960;5.500;2023-04-01T17:13:40;2.13;;;1.60;;
59338;SDS011;45117;50.960;5.500;2023-04-01T17:16:20;4.50;;;2.58;;
59338;SDS011;45117;50.960;5.500;2023-04-01T17:18:56;5.13;;;3.15;;
59338;SDS011;45117;50.960;5.500;2023-04-01T17:21:35;9.52;;;4.95;;
59338;SDS011;45117;50.960;5.500;2023-04-01T17:24:17;7.63;;;4.40;;
59338;SDS011;45117;50.960;5.500;2023-04-01T17:26:54;8.18;;;4.60;;
59338;SDS011;45117;50.960;5.500;2023-04-01T17:29:31;8.45;;;4.90;;
59338;SDS011;45117;50.960;5.500;2023-04-01T17:32:20;9.40;;;5.22;;
59338;SDS011;45117;50.960;5.500;2023-04-01T17:34:57;7.90;;;4.90;;
59338;SDS011;45117;50.960;5.500;2023-04-01T17:37:37;7.88;;;4.88;;
59338;SDS011;45117;50.960;5.500;2023-04-01T17:40:14;9.50;;;5.60;;
59338;SDS011;45117;50.960;5.500;2023-04-01T17:42:52;7.82;;;5.47;;
59338;SDS011;45117;50.960;5.500;2023-04-01T17:45:28;7.13;;;4.50;;
59338;SDS011;45117;50.960;5.500;2023-04-01T17:48:03;9.25;;;5.10;;
59338;SDS011;45117;50.960;5.500;2023-04-01T17:50:49;7.75;;;4.40;;
59338;SDS011;45117;50.960;5.500;2023-04-01T17:53:28;5.60;;;3.85;;
59338;SDS011;45117;50.960;5.500;2023-04-01T17:56:04;5.20;;;3.80;;
59338;SDS011;45117;50.960;5.500;2023-04-01T17:58:40;6.07;;;3.78;;
59338;SDS011;45117;50.960;5.500;2023-04-01T18:01:22;6.13;;;4.18;;
59338;SDS011;45117;50.960;5.500;2023-04-01T18:07:04;5.50;;;3.83;;
59338;SDS011;45117;50.960;5.500;2023-04-01T18:09:45;7.45;;;3.60;;
59338;SDS011;45117;50.960;5.500;2023-04-01T18:12:21;4.97;;;3.47;;
59338;SDS011;45117;50.960;5.500;2023-04-01T18:15:02;5.30;;;3.67;;
59338;SDS011;45117;50.960;5.500;2023-04-01T18:17:42;4.75;;;2.88;;
59338;SDS011;45117;50.960;5.500;2023-04-01T18:20:24;5.07;;;2.70;;
59338;SDS011;45117;50.960;5.500;2023-04-01T18:22:57;4.60;;;3.15;;
59338;SDS011;45117;50.960;5.500;2023-04-01T18:25:28;4.85;;;3.35;;
59338;SDS011;45117;50.960;5.500;2023-04-01T18:31:22;3.63;;;2.70;;
59338;SDS011;45117;50.960;5.500;2023-04-01T18:33:55;3.50;;;2.75;;
59338;SDS011;45117;50.960;5.500;2023-04-01T18:36:33;4.60;;;2.95;;
59338;SDS011;45117;50.960;5.500;2023-04-01T18:39:08;4.45;;;2.58;;
59338;SDS011;45117;50.960;5.500;2023-04-01T18:41:40;4.32;;;3.08;;
59338;SDS011;45117;50.960;5.500;2023-04-01T18:44:20;5.50;;;3.10;;
59338;SDS011;45117;50.960;5.500;2023-04-01T18:46:55;6.50;;;4.60;;
59338;SDS011;45117;50.960;5.500;2023-04-01T18:49:33;8.73;;;4.07;;
59338;SDS011;45117;50.960;5.500;2023-04-01T18:52:08;5.20;;;3.60;;
59338;SDS011;45117;50.960;5.500;2023-04-01T18:54:42;4.45;;;3.70;;
59338;SDS011;45117;50.960;5.500;2023-04-01T18:57:14;4.60;;;3.10;;
59338;SDS011;45117;50.960;5.500;2023-04-01T18:59:42;4.20;;;3.45;;
59338;SDS011;45117;50.960;5.500;2023-04-01T19:02:20;6.15;;;3.15;;
59338;SDS011;45117;50.960;5.500;2023-04-01T19:05:00;7.95;;;5.15;;
59338;SDS011;45117;50.960;5.500;2023-04-01T19:07:41;8.32;;;5.00;;
59338;SDS011;45117;50.960;5.500;2023-04-01T19:10:14;7.40;;;4.90;;
59338;SDS011;45117;50.960;5.500;2023-04-01T19:12:51;7.05;;;5.10;;